createdAt,value
2022-10-26T00:04:46.698Z,7.90
2022-10-26T00:09:48.048Z,12.93
2022-10-26T00:14:49.384Z,4.65
2022-10-26T00:19:50.780Z,3.78
2022-10-26T00:24:52.314Z,5.82
2022-10-26T00:29:53.660Z,8.57
2022-10-26T00:34:55.093Z,6.38
2022-10-26T00:39:56.437Z,6.88
2022-10-26T00:45:19.228Z,9.15
2022-10-26T00:50:26.163Z,8.02
2022-10-26T00:55:35.440Z,6.65
2022-10-26T01:00:36.839Z,8.63
2022-10-26T01:05:42.313Z,12.20
2022-10-26T01:10:44.266Z,6.70
2022-10-26T01:15:58.992Z,6.18
2022-10-26T01:21:27.538Z,6.55
2022-10-26T01:26:47.056Z,5.53
2022-10-26T01:32:03.841Z,6.57
2022-10-26T01:37:12.102Z,10.00
2022-10-26T01:42:17.081Z,12.77
2022-10-26T01:47:23.486Z,9.60
2022-10-26T01:52:25.057Z,8.75
2022-10-26T01:57:26.460Z,8.35
2022-10-26T02:02:41.772Z,10.50
2022-10-26T02:08:07.647Z,8.32
2022-10-26T02:13:15.689Z,8.98
2022-10-26T02:18:38.127Z,6.20
2022-10-26T02:23:43.999Z,8.00
2022-10-26T02:28:53.883Z,4.88
2022-10-26T02:34:01.171Z,6.82
2022-10-26T02:44:14.688Z,6.45
2022-10-26T02:49:16.656Z,5.97
2022-10-26T02:54:32.570Z,7.18
2022-10-26T02:59:37.273Z,5.20
2022-10-26T03:04:38.640Z,7.05
2022-10-26T03:09:39.976Z,8.95
2022-10-26T03:14:41.418Z,3.33
2022-10-26T03:19:42.755Z,9.75
2022-10-26T03:24:44.123Z,10.07
2022-10-26T03:29:45.512Z,8.88
2022-10-26T03:34:46.822Z,8.23
2022-10-26T03:39:48.183Z,6.50
2022-10-26T03:44:49.703Z,6.15
2022-10-26T03:49:51.086Z,11.18
2022-10-26T03:54:52.440Z,9.07
2022-10-26T03:59:53.777Z,6.72
2022-10-26T04:04:55.282Z,5.93
2022-10-26T04:09:56.614Z,8.93
2022-10-26T04:14:58.344Z,6.13
2022-10-26T04:19:59.750Z,11.07
2022-10-26T04:25:01.075Z,8.50
2022-10-26T04:30:02.431Z,9.63
2022-10-26T04:35:03.998Z,9.70
2022-10-26T04:45:13.988Z,6.38
2022-10-26T04:50:15.355Z,7.43
2022-10-26T04:55:16.791Z,4.88
2022-10-26T05:00:18.322Z,5.70
2022-10-26T05:05:19.669Z,5.28
2022-10-26T05:10:21.063Z,10.50
2022-10-26T05:15:22.603Z,5.72
2022-10-26T05:20:29.589Z,9.07
2022-10-26T05:25:33.986Z,9.57
2022-10-26T05:30:35.508Z,3.45
2022-10-26T05:35:37.473Z,6.03
2022-10-26T05:40:38.845Z,13.20
2022-10-26T05:45:40.180Z,11.77
2022-10-26T05:50:41.538Z,7.70
2022-10-26T05:55:43.483Z,7.40
2022-10-26T06:01:23.403Z,6.07
2022-10-26T06:06:37.700Z,8.90
2022-10-26T06:11:39.547Z,6.88
2022-10-26T06:17:24.739Z,7.35
2022-10-26T06:23:01.124Z,9.98
2022-10-26T06:28:21.534Z,13.45
2022-10-26T06:33:29.478Z,7.85
2022-10-26T06:38:34.334Z,9.60
2022-10-26T06:43:35.989Z,11.00
2022-10-26T06:48:51.808Z,10.48
2022-10-26T06:54:05.551Z,9.25
2022-10-26T06:59:13.815Z,9.63
2022-10-26T07:04:15.166Z,6.03
2022-10-26T07:09:16.508Z,6.70
2022-10-26T07:14:17.867Z,6.40
2022-10-26T07:19:19.254Z,6.75
2022-10-26T07:24:20.587Z,3.60
2022-10-26T07:29:23.211Z,10.02
2022-10-26T07:34:24.563Z,6.85
2022-10-26T07:39:26.405Z,6.50
2022-10-26T07:44:27.883Z,8.65
2022-10-26T07:49:29.233Z,5.30
2022-10-26T07:54:30.615Z,7.63
2022-10-26T07:59:32.006Z,5.57
2022-10-26T08:04:33.355Z,7.57
2022-10-26T08:09:34.691Z,9.70
2022-10-26T08:14:36.035Z,7.38
2022-10-26T08:19:37.551Z,6.30
2022-10-26T08:24:38.956Z,8.55
2022-10-26T08:29:41.031Z,6.75
2022-10-26T08:34:42.367Z,7.57
2022-10-26T08:39:43.761Z,8.93
2022-10-26T08:44:51.302Z,7.82
2022-10-26T08:50:02.969Z,10.85
2022-10-26T08:55:10.336Z,7.20
2022-10-26T09:00:17.296Z,7.10
2022-10-26T09:05:23.663Z,4.90
2022-10-26T09:11:10.304Z,9.67
2022-10-26T09:16:20.882Z,8.18
2022-10-26T09:21:39.474Z,8.88
2022-10-26T09:27:01.517Z,7.95
2022-10-26T09:32:04.788Z,9.30
2022-10-26T09:37:20.518Z,9.77
2022-10-26T09:42:36.519Z,10.30
2022-10-26T09:47:39.549Z,7.63
2022-10-26T09:52:40.967Z,7.30
2022-10-26T09:57:45.590Z,12.10
2022-10-26T10:02:53.096Z,14.63
2022-10-26T10:08:25.101Z,8.35
2022-10-26T10:13:29.750Z,7.43
2022-10-26T10:18:32.029Z,6.25
2022-10-26T10:23:36.510Z,4.32
2022-10-26T10:28:40.168Z,6.85
2022-10-26T10:33:42.620Z,9.73
2022-10-26T10:38:45.697Z,3.88
2022-10-26T10:44:09.094Z,7.07
2022-10-26T10:49:23.616Z,5.72
2022-10-26T10:54:34.628Z,6.43
2022-10-26T10:59:50.919Z,8.23
2022-10-26T11:05:23.472Z,5.87
2022-10-26T11:10:36.793Z,6.32
2022-10-26T11:15:42.186Z,7.00
2022-10-26T11:20:51.896Z,8.70
2022-10-26T11:26:00.132Z,5.25
2022-10-26T11:31:06.571Z,6.70
2022-10-26T11:36:19.855Z,5.22
2022-10-26T11:41:31.211Z,9.70
2022-10-26T11:46:41.419Z,6.55
2022-10-26T11:52:04.401Z,5.38
2022-10-26T11:57:05.959Z,5.03
2022-10-26T12:02:16.282Z,5.63
2022-10-26T12:07:24.739Z,7.07
2022-10-26T12:12:38.846Z,4.28
2022-10-26T12:18:36.737Z,7.72
2022-10-26T12:24:22.093Z,9.00
2022-10-26T12:29:26.579Z,5.47
2022-10-26T12:34:30.705Z,8.90
2022-10-26T12:39:37.582Z,10.43
2022-10-26T12:50:22.527Z,3.33
2022-10-26T12:55:42.075Z,3.17
2022-10-26T13:01:08.427Z,8.27
2022-10-26T13:06:36.150Z,4.97
2022-10-26T13:11:43.660Z,5.80
2022-10-26T13:16:46.462Z,5.93
2022-10-26T13:21:49.654Z,4.35
2022-10-26T13:27:07.200Z,4.88
2022-10-26T13:32:09.148Z,4.57
2022-10-26T13:37:24.208Z,5.18
2022-10-26T13:42:39.557Z,5.97
2022-10-26T13:48:08.084Z,5.20
2022-10-26T13:53:41.320Z,4.30
2022-10-26T13:58:55.249Z,8.35
2022-10-26T14:03:57.665Z,4.85
2022-10-26T14:09:12.089Z,4.20
2022-10-26T14:14:36.214Z,4.28
2022-10-26T14:19:40.781Z,4.93
2022-10-26T14:24:51.714Z,3.83
2022-10-26T14:30:20.535Z,7.15
2022-10-26T14:35:16.611Z,14.32
2022-10-26T14:40:23.830Z,5.10
2022-10-26T14:50:59.620Z,4.57
2022-10-26T14:56:01.730Z,3.55
2022-10-26T15:01:22.233Z,5.90
2022-10-26T15:06:34.105Z,6.65
2022-10-26T15:11:41.551Z,3.60
2022-10-26T15:16:54.051Z,12.35
2022-10-26T15:21:55.579Z,10.05
2022-10-26T15:26:57.387Z,7.95
2022-10-26T15:37:10.083Z,6.68
2022-10-26T15:42:14.734Z,7.97
2022-10-26T15:47:19.470Z,6.03
2022-10-26T15:52:20.859Z,7.55
2022-10-26T15:57:23.146Z,5.57
2022-10-26T16:02:24.530Z,8.15
2022-10-26T16:07:27.370Z,4.65
2022-10-26T16:12:28.818Z,5.63
2022-10-26T16:17:30.160Z,8.13
2022-10-26T16:22:33.719Z,6.00
2022-10-26T16:27:37.749Z,5.73
2022-10-26T16:32:39.857Z,7.45
2022-10-26T16:37:41.379Z,9.73
2022-10-26T16:42:44.510Z,8.20
2022-10-26T16:47:45.938Z,8.65
2022-10-26T16:52:47.283Z,12.65
2022-10-26T16:57:49.066Z,10.35
2022-10-26T17:02:50.700Z,8.55
2022-10-26T17:07:52.294Z,9.65
2022-10-26T17:12:55.708Z,5.93
2022-10-26T17:17:57.127Z,5.72
2022-10-26T17:22:58.502Z,7.07
2022-10-26T17:27:59.900Z,14.25
2022-10-26T17:33:01.607Z,9.43
2022-10-26T17:38:03.503Z,13.20
2022-10-26T17:43:04.916Z,11.18
2022-10-26T17:48:06.328Z,16.30
2022-10-26T17:53:07.758Z,11.43
2022-10-26T17:58:09.246Z,16.02
2022-10-26T18:03:10.745Z,25.95
2022-10-26T18:08:12.199Z,17.85
2022-10-26T18:13:13.729Z,13.23
2022-10-26T18:18:15.192Z,14.88
2022-10-26T18:23:16.718Z,11.23
2022-10-26T18:28:18.234Z,15.77
2022-10-26T18:33:19.766Z,8.55
2022-10-26T18:38:21.218Z,18.13
2022-10-26T18:43:22.806Z,15.52
2022-10-26T18:48:24.338Z,13.35
2022-10-26T18:53:25.754Z,14.10
2022-10-26T18:58:36.085Z,10.93
2022-10-26T19:03:38.890Z,18.63
2022-10-26T19:08:41.121Z,12.25
2022-10-26T19:13:42.717Z,17.80
2022-10-26T19:18:44.799Z,15.13
2022-10-26T19:23:48.603Z,24.40
2022-10-26T19:28:57.849Z,21.63
2022-10-26T19:34:00.335Z,13.63
2022-10-26T19:39:02.208Z,15.75
2022-10-26T19:44:04.434Z,14.63
2022-10-26T19:49:05.959Z,15.43
2022-10-26T19:54:07.698Z,15.48
2022-10-26T19:59:11.059Z,17.45
2022-10-26T20:04:13.291Z,20.13
2022-10-26T20:09:14.800Z,15.25
2022-10-26T20:14:16.257Z,16.15
2022-10-26T20:19:17.889Z,12.30
2022-10-26T20:24:19.344Z,12.68
2022-10-26T20:29:21.753Z,13.43
2022-10-26T20:34:23.278Z,15.23
2022-10-26T20:39:25.075Z,12.25
2022-10-26T20:44:31.732Z,19.02
2022-10-26T20:49:33.423Z,15.50
2022-10-26T20:54:45.782Z,14.48
2022-10-26T20:59:51.908Z,15.63
2022-10-26T21:04:53.372Z,17.20
2022-10-26T21:09:54.889Z,16.95
2022-10-26T21:14:56.384Z,12.48
2022-10-26T21:19:57.819Z,15.98
2022-10-26T21:24:59.175Z,11.85
2022-10-26T21:30:00.517Z,14.95
2022-10-26T21:35:01.950Z,17.08
2022-10-26T21:40:03.519Z,10.82
2022-10-26T21:45:05.414Z,12.18
2022-10-26T21:50:07.300Z,13.93
2022-10-26T21:55:09.214Z,16.02
2022-10-26T22:00:11.187Z,9.93
2022-10-26T22:05:12.620Z,12.52
2022-10-26T22:10:14.040Z,9.68
2022-10-26T22:15:16.784Z,7.50
2022-10-26T22:20:18.173Z,10.35
2022-10-26T22:25:19.486Z,11.35
2022-10-26T22:30:21.084Z,15.32
2022-10-26T22:35:29.451Z,12.55
2022-10-26T22:40:31.055Z,10.13
2022-10-26T22:45:32.434Z,10.57
2022-10-26T22:50:33.788Z,16.58
2022-10-26T22:55:35.118Z,16.25
2022-10-26T23:00:37.660Z,9.57
2022-10-26T23:05:45.567Z,9.68
2022-10-26T23:10:46.900Z,14.50
2022-10-26T23:15:48.268Z,12.55
2022-10-26T23:20:50.747Z,12.82
2022-10-26T23:25:52.075Z,10.52
2022-10-26T23:30:55.878Z,11.38
2022-10-26T23:35:57.740Z,7.18
2022-10-26T23:40:59.928Z,10.50
2022-10-26T23:46:01.509Z,13.00
2022-10-26T23:51:02.910Z,7.65
2022-10-26T23:56:04.472Z,8.95
